Time;durP1;ratioP1;P1;durP2;ratioP2;P2;SDS_P1;SDS_P2;PMS_P1;PMS_P2;Temp;Humidity;BMP_temperature;BMP_pressure;BME280_temperature;BME280_humidity;BME280_pressure;Samples;Min_cycle;Max_cycle;Signal;HPM_P1;HPM_P2
2021/10/14 00:01:21;;;;;;;13.75;10.88;;;16.70;99.90;;;17.20;84.19;102480.09;4842517;29;20049;-71
2021/10/14 00:03:49;;;;;;;16.40;11.75;;;16.70;99.90;;;17.21;84.27;102480.06;4842162;29;20109;-71
2021/10/14 00:06:19;;;;;;;13.93;11.48;;;16.80;99.90;;;17.27;84.00;102481.81;4842190;29;20046;-72
2021/10/14 00:08:47;;;;;;;14.70;11.35;;;16.80;99.90;;;17.25;84.10;102470.28;4842169;29;20056;-72
2021/10/14 00:11:16;;;;;;;14.70;11.70;;;16.80;99.90;;;17.27;83.84;102474.69;4842406;29;20098;-72
2021/10/14 00:13:44;;;;;;;13.73;11.27;;;16.80;99.90;;;17.29;83.88;102478.25;4842395;29;20489;-72
2021/10/14 00:16:13;;;;;;;16.25;12.52;;;16.90;99.90;;;17.31;83.78;102473.78;4842364;29;20034;-72
2021/10/14 00:18:43;;;;;;;15.30;12.60;;;16.90;99.90;;;17.34;83.71;102471.09;4842062;29;20046;-72
2021/10/14 00:21:11;;;;;;;15.60;12.75;;;16.90;99.90;;;17.35;83.66;102471.97;4842104;29;20096;-71
2021/10/14 00:23:41;;;;;;;15.93;12.30;;;16.90;99.90;;;17.36;83.89;102469.31;4842331;29;20046;-72
2021/10/14 00:26:10;;;;;;;14.88;12.73;;;16.90;99.90;;;17.35;83.79;102471.97;4842337;29;20050;-72
2021/10/14 00:28:38;;;;;;;14.77;12.35;;;16.90;99.90;;;17.33;83.80;102457.72;4842010;29;20520;-72
2021/10/14 00:31:06;;;;;;;15.32;12.25;;;16.90;99.90;;;17.30;83.98;102469.34;4840754;29;20046;-72
2021/10/14 00:33:35;;;;;;;16.45;12.30;;;16.90;99.90;;;17.30;83.93;102461.31;4842009;29;20050;-72
2021/10/14 00:36:04;;;;;;;14.43;11.77;;;16.90;99.90;;;17.32;83.86;102447.94;4841947;29;20074;-72
2021/10/14 00:38:32;;;;;;;16.98;12.88;;;16.90;99.90;;;17.32;83.84;102450.59;4842431;29;20054;-72
2021/10/14 00:41:02;;;;;;;17.55;11.95;;;16.90;99.90;;;17.33;83.93;102452.38;4841921;29;20060;-72
2021/10/14 00:43:30;;;;;;;16.60;13.13;;;16.90;99.90;;;17.27;84.21;102444.38;4842123;29;20133;-72
2021/10/14 00:45:59;;;;;;;18.05;13.35;;;16.90;99.90;;;16.70;84.16;102374.34;4844650;29;20318;-72
2021/10/14 00:48:27;;;;;;;17.35;13.55;;;16.90;99.90;;;17.28;84.34;102447.06;4845358;29;20099;-72
2021/10/14 00:50:56;;;;;;;18.73;14.38;;;16.90;99.90;;;17.26;84.41;102450.63;4845601;29;20128;-72
2021/10/14 00:53:24;;;;;;;19.77;14.40;;;16.80;99.90;;;17.24;84.44;102445.31;4845183;29;20178;-72
2021/10/14 00:55:52;;;;;;;16.90;14.52;;;16.80;99.90;;;17.17;84.79;102437.34;4845315;29;20416;-71
2021/10/14 00:58:22;;;;;;;19.75;14.65;;;16.80;99.90;;;17.15;85.01;102432.88;4845063;29;20046;-71
2021/10/14 01:00:51;;;;;;;21.90;15.50;;;16.80;99.90;;;17.19;85.17;102435.53;4845371;29;20045;-72
2021/10/14 01:03:19;;;;;;;19.73;14.95;;;16.80;99.90;;;17.21;85.01;102437.28;4845042;29;20287;-72
2021/10/14 01:05:48;;;;;;;22.02;15.30;;;16.80;99.90;;;17.10;84.97;102407.97;4844970;29;20101;-71
2021/10/14 01:08:17;;;;;;;19.95;14.73;;;16.80;99.90;;;17.23;84.85;102429.28;4845315;29;20442;-72
2021/10/14 01:10:45;;;;;;;21.95;15.98;;;16.80;99.90;;;17.21;84.75;102423.91;4845172;29;20095;-71
2021/10/14 01:13:14;;;;;;;22.13;16.10;;;16.80;99.90;;;17.23;84.79;102429.28;4844779;29;20089;-71
2021/10/14 01:15:45;;;;;;;22.08;15.15;;;16.80;99.90;;;17.22;84.72;102422.13;4845003;29;20072;-71
2021/10/14 01:18:14;;;;;;;22.85;15.57;;;16.80;99.90;;;17.21;84.65;102418.56;4845099;29;20057;-72
2021/10/14 01:20:44;;;;;;;22.60;15.13;;;16.80;99.90;;;17.24;84.53;102421.25;4843752;29;20054;-72
2021/10/14 01:23:12;;;;;;;23.90;16.60;;;16.80;99.90;;;17.20;84.54;102408.78;4844872;29;20042;-72
2021/10/14 01:25:47;;;;;;;20.90;15.00;;;16.80;99.90;;;17.23;84.62;102422.13;4843671;29;20472;-72
2021/10/14 01:28:16;;;;;;;21.38;15.27;;;16.80;99.90;;;17.23;84.66;102406.06;4844680;29;20049;-72
2021/10/14 01:30:44;;;;;;;23.85;14.88;;;16.80;99.90;;;17.24;84.39;102404.28;4844801;29;20449;-72
2021/10/14 01:33:31;;;;;;;24.58;15.73;;;16.80;99.90;;;17.26;84.33;102407.84;4844590;29;20045;-72
2021/10/14 01:36:03;;;;;;;23.67;16.47;;;16.80;99.90;;;17.24;84.43;102399.84;4843377;29;20058;-71
2021/10/14 01:38:31;;;;;;;20.02;15.52;;;16.80;99.90;;;17.26;84.48;102398.03;4844457;29;20065;-72
2021/10/14 01:41:00;;;;;;;25.48;16.33;;;16.80;99.90;;;17.27;84.42;102410.50;4844299;29;20046;-72
2021/10/14 01:43:28;;;;;;;27.25;16.17;;;16.90;99.90;;;16.51;84.79;102276.47;4844483;29;20049;-72
2021/10/14 01:45:56;;;;;;;25.77;15.80;;;16.80;99.90;;;17.13;84.91;102401.69;4844289;29;20144;-72
2021/10/14 01:48:27;;;;;;;26.60;15.50;;;16.80;99.90;;;17.05;85.48;102399.06;4844201;29;20050;-71
2021/10/14 01:50:56;;;;;;;23.38;15.35;;;16.70;99.90;;;17.05;85.36;102400.88;4844623;29;20462;-72
2021/10/14 01:53:26;;;;;;;23.70;15.93;;;16.60;99.90;;;17.09;85.27;102399.94;4844386;29;20159;-72
2021/10/14 01:55:55;;;;;;;28.67;15.98;;;16.60;99.90;;;17.17;85.12;102409.69;4843838;29;20106;-71
2021/10/14 01:58:23;;;;;;;21.77;15.15;;;16.70;99.90;;;17.01;84.80;102365.22;4844017;29;20460;-72
2021/10/14 02:00:53;;;;;;;24.88;15.73;;;16.80;99.90;;;17.09;84.91;102399.94;4844246;29;20050;-72
2021/10/14 02:03:22;;;;;;;22.00;14.82;;;16.70;99.90;;;17.13;84.81;102402.56;4844046;29;20110;-72
2021/10/14 02:05:50;;;;;;;24.38;16.13;;;16.80;99.90;;;16.76;84.90;102341.34;4842905;29;20140;-72
2021/10/14 02:08:19;;;;;;;23.45;16.02;;;16.70;99.90;;;17.07;84.83;102407.97;4843839;29;20057;-71
2021/10/14 02:10:48;;;;;;;27.70;15.20;;;16.70;99.90;;;17.07;84.72;102399.06;4842822;29;20459;-72
2021/10/14 02:13:17;;;;;;;24.67;15.80;;;16.70;99.90;;;16.98;84.82;102389.31;4843737;29;20053;-71
2021/10/14 02:15:45;;;;;;;26.45;16.60;;;16.60;99.90;;;16.99;84.70;102391.06;4843667;29;20128;-72
2021/10/14 02:18:13;;;;;;;28.02;16.05;;;16.60;99.90;;;16.98;84.82;102391.97;4843936;29;20056;-72
2021/10/14 02:20:42;;;;;;;25.02;16.13;;;16.60;99.90;;;17.00;84.63;102391.97;4843883;29;20120;-72
2021/10/14 02:23:10;;;;;;;23.73;16.17;;;16.60;99.90;;;17.00;84.54;102394.63;4842875;29;20050;-72
2021/10/14 02:25:39;;;;;;;26.77;16.73;;;16.60;99.90;;;16.99;84.53;102396.41;4842640;29;20053;-72
2021/10/14 02:28:09;;;;;;;25.55;16.42;;;16.60;99.90;;;17.03;84.35;102395.50;4844056;29;20053;-72
2021/10/14 02:30:37;;;;;;;28.10;16.17;;;16.60;99.90;;;16.99;84.37;102385.72;4843761;29;20054;-71
2021/10/14 02:33:06;;;;;;;30.15;17.02;;;16.60;99.90;;;16.99;84.38;102388.41;4843695;29;20053;-71
2021/10/14 02:35:34;;;;;;;24.98;16.23;;;16.60;99.90;;;16.96;84.52;102376.84;4843525;29;20093;-71
2021/10/14 02:38:03;;;;;;;25.00;15.45;;;16.60;99.90;;;16.97;84.42;102374.19;4843727;29;20106;-72
2021/10/14 02:40:31;;;;;;;20.58;15.25;;;16.60;99.90;;;16.96;84.45;102383.09;4842303;29;20401;-71
2021/10/14 02:43:00;;;;;;;24.92;15.65;;;16.50;99.90;;;16.97;84.40;102374.19;4843204;29;20042;-72
2021/10/14 02:45:30;;;;;;;24.92;16.08;;;16.60;99.90;;;16.89;84.31;102364.41;4841859;29;20103;-71
2021/10/14 02:47:58;;;;;;;27.48;15.73;;;16.60;99.90;;;16.76;84.49;102342.22;4843210;29;20441;-71
2021/10/14 02:50:27;;;;;;;25.88;15.80;;;16.60;99.90;;;16.98;84.53;102375.03;4841922;29;20062;-72
2021/10/14 02:52:55;;;;;;;25.52;16.77;;;16.60;99.90;;;16.98;84.51;102375.03;4843084;29;20069;-71
2021/10/14 02:55:23;;;;;;;26.42;16.52;;;16.60;99.90;;;16.98;84.65;102381.28;4843153;29;20450;-72
2021/10/14 02:57:52;;;;;;;25.60;16.08;;;16.50;99.90;;;17.00;84.65;102378.59;4842957;29;20049;-71
2021/10/14 03:00:20;;;;;;;26.35;16.85;;;16.60;99.90;;;17.02;84.68;102382.16;4843192;29;20057;-72
2021/10/14 03:02:50;;;;;;;26.65;15.85;;;16.60;99.90;;;16.97;85.37;102390.22;4843138;29;20095;-72
2021/10/14 03:05:18;;;;;;;28.87;15.93;;;16.50;99.90;;;17.02;85.10;102382.16;4843130;29;20062;-71
2021/10/14 03:07:47;;;;;;;23.70;15.90;;;16.60;99.90;;;17.08;84.85;102385.69;4841271;29;20499;-72
2021/10/14 03:10:15;;;;;;;25.48;16.85;;;16.60;99.90;;;17.11;84.79;102382.13;4842763;29;20050;-71
2021/10/14 03:12:44;;;;;;;25.20;15.50;;;16.70;99.90;;;17.15;85.31;102373.13;4843015;29;20081;-71
2021/10/14 03:15:12;;;;;;;20.85;14.35;;;16.70;99.90;;;17.21;85.25;102382.94;4842541;29;20054;-71
2021/10/14 03:17:40;;;;;;;18.67;13.82;;;16.80;99.90;;;17.01;86.30;102375.91;4842889;29;20081;-72
2021/10/14 03:20:11;;;;;;;17.75;12.60;;;16.60;99.90;;;17.10;86.76;102372.28;4842869;29;20522;-71
2021/10/14 03:22:39;;;;;;;14.52;11.00;;;16.60;99.90;;;17.00;86.93;102341.16;4843234;29;20046;-72
2021/10/14 03:25:09;;;;;;;17.17;10.57;;;16.70;99.90;;;17.21;86.93;102372.22;4842595;29;20547;-72
2021/10/14 03:27:37;;;;;;;17.92;10.52;;;16.80;99.90;;;17.25;87.06;102374.84;4842515;29;20046;-71
2021/10/14 03:30:07;;;;;;;14.93;10.07;;;16.80;99.90;;;17.30;86.88;102366.81;4842717;29;20045;-72
2021/10/14 03:32:36;;;;;;;13.63;8.82;;;16.80;99.90;;;17.25;86.36;102365.97;4842770;29;20046;-71
2021/10/14 03:35:05;;;;;;;13.20;10.18;;;16.90;99.90;;;17.36;86.14;102374.78;4842718;29;20052;-72
2021/10/14 03:37:40;;;;;;;11.98;8.80;;;16.90;99.90;;;17.39;85.56;102377.41;4842484;29;20046;-72
2021/10/14 03:40:10;;;;;;;13.37;9.40;;;17.00;99.90;;;17.41;85.20;102381.88;4842447;29;20046;-72
2021/10/14 03:42:38;;;;;;;14.15;8.68;;;17.00;99.90;;;17.43;85.17;102384.53;4841512;29;20080;-72
2021/10/14 03:45:08;;;;;;;13.23;8.15;;;17.00;99.90;;;17.44;84.95;102380.97;4842626;29;20148;-72
2021/10/14 03:47:37;;;;;;;12.90;8.45;;;17.00;99.90;;;17.42;84.88;102383.63;4842388;29;20057;-71
2021/10/14 03:50:08;;;;;;;12.20;8.15;;;17.00;99.90;;;17.30;85.00;102374.81;4842616;29;20129;-72
2021/10/14 03:52:37;;;;;;;12.88;8.60;;;17.00;99.90;;;17.44;84.99;102375.59;4842345;29;20106;-74
2021/10/14 03:55:09;;;;;;;13.32;8.63;;;17.00;99.90;;;17.45;84.57;102374.69;4842522;29;20437;-72
2021/10/14 03:57:37;;;;;;;12.13;8.50;;;17.10;99.90;;;17.46;84.39;102379.16;4842294;29;20038;-71
2021/10/14 04:00:08;;;;;;;13.27;9.13;;;17.10;99.90;;;17.47;84.12;102375.56;4841271;29;20137;-72
2021/10/14 04:02:36;;;;;;;;;;;17.10;99.90;;;17.40;83.93;102376.53;4826370;29;20505;-71
2021/10/14 04:05:06;;;;;;;13.93;9.38;;;17.10;99.90;;;17.48;83.90;102377.38;4842473;29;19925;-71
2021/10/14 04:07:34;;;;;;;12.57;8.55;;;17.10;99.90;;;17.47;83.79;102380.91;4842470;29;20046;-72
2021/10/14 04:10:06;;;;;;;13.27;9.50;;;17.10;99.90;;;17.23;83.98;102354.38;4841185;29;20081;-72
2021/10/14 04:12:35;;;;;;;14.18;8.88;;;17.10;99.90;;;17.41;83.90;102380.97;4842590;29;20145;-72
2021/10/14 04:15:04;;;;;;;15.40;8.10;;;17.10;99.90;;;17.47;83.99;102387.16;4842022;29;20046;-71
2021/10/14 04:17:32;;;;;;;20.90;8.85;;;17.10;99.90;;;17.50;83.82;102380.94;4842120;29;20145;-72
2021/10/14 04:20:00;;;;;;;14.10;8.32;;;17.10;99.90;;;17.51;83.41;102374.69;4844875;29;20073;-72
2021/10/14 04:22:29;;;;;;;13.52;8.85;;;17.10;99.90;;;17.53;83.43;102378.22;4845979;29;20092;-72
2021/10/14 04:24:57;;;;;;;11.35;8.00;;;17.10;99.90;;;17.48;83.25;102372.91;4845661;29;20054;-72
2021/10/14 04:27:27;;;;;;;15.82;8.40;;;17.10;99.90;;;17.36;83.63;102361.41;4845812;29;20468;-72
2021/10/14 04:29:55;;;;;;;13.13;7.90;;;17.00;99.90;;;17.48;83.51;102372.91;4845621;29;20069;-72
2021/10/14 04:32:24;;;;;;;9.02;7.47;;;17.00;99.90;;;17.35;83.45;102351.59;4845560;29;20466;-72
2021/10/14 04:34:52;;;;;;;13.70;8.65;;;17.00;99.90;;;17.49;83.18;102368.44;4845481;29;20049;-71
2021/10/14 04:37:21;;;;;;;13.77;7.97;;;17.10;99.90;;;17.43;82.89;102366.69;4844452;29;20046;-71
2021/10/14 04:39:50;;;;;;;14.75;7.90;;;17.00;99.90;;;17.47;82.77;102362.19;4844619;29;20112;-72
2021/10/14 04:42:18;;;;;;;14.65;7.68;;;17.10;99.90;;;17.39;82.73;102356.00;4845595;29;20408;-72
2021/10/14 04:44:48;;;;;;;11.20;7.57;;;17.00;99.90;;;17.30;82.87;102362.34;4845638;29;20476;-72
2021/10/14 04:47:20;;;;;;;12.53;6.10;;;16.90;99.90;;;16.97;82.83;102318.03;4845637;29;20053;-72
2021/10/14 04:49:48;;;;;;;9.95;6.82;;;16.80;99.90;;;17.08;83.17;102361.63;4844080;29;20068;-72
2021/10/14 04:52:17;;;;;;;12.05;6.57;;;16.70;99.90;;;17.04;82.87;102342.91;4845493;29;20130;-72
2021/10/14 04:54:45;;;;;;;10.52;6.75;;;16.70;99.90;;;17.07;83.03;102358.97;4845372;29;20042;-72
2021/10/14 04:57:14;;;;;;;11.88;6.20;;;16.70;99.90;;;17.08;82.87;102356.28;4844021;29;20137;-71
2021/10/14 04:59:42;;;;;;;7.72;5.80;;;16.60;99.90;;;17.03;82.44;102351.84;4845015;29;20512;-72
2021/10/14 05:02:12;;;;;;;8.63;5.63;;;16.60;99.90;;;17.05;82.46;102356.28;4845057;29;20458;-71
2021/10/14 05:04:40;;;;;;;13.15;6.13;;;16.60;99.90;;;16.93;82.30;102345.69;4844864;29;20462;-71
2021/10/14 05:07:09;;;;;;;9.20;5.70;;;16.60;99.90;;;17.12;82.18;102363.38;4843782;29;20136;-71
2021/10/14 05:09:37;;;;;;;9.60;6.15;;;16.60;99.90;;;17.01;82.51;102361.69;4844905;29;20078;-71
2021/10/14 05:12:06;;;;;;;9.65;6.32;;;16.60;99.90;;;16.96;82.79;102361.69;4845093;29;20046;-72
2021/10/14 05:14:35;;;;;;;10.85;6.57;;;16.60;99.90;;;16.96;82.71;102361.69;4843622;29;20073;-72
2021/10/14 05:17:03;;;;;;;9.18;6.40;;;16.60;99.90;;;16.97;82.94;102363.50;4844825;29;20054;-72
2021/10/14 05:19:33;;;;;;;12.10;6.57;;;16.60;99.90;;;16.95;82.51;102343.91;4845053;29;20085;-72
2021/10/14 05:22:02;;;;;;;8.35;6.07;;;16.60;99.90;;;17.09;82.36;102358.03;4844897;29;20058;-72
2021/10/14 05:24:30;;;;;;;12.98;6.47;;;16.70;99.90;;;17.17;82.00;102359.78;4843522;29;20050;-71
2021/10/14 05:26:59;;;;;;;12.27;6.07;;;16.80;99.90;;;17.15;81.91;102368.69;4843608;29;20149;-72
2021/10/14 05:29:27;;;;;;;9.90;5.80;;;16.80;99.90;;;17.15;81.87;102357.09;4844641;29;20049;-71
2021/10/14 05:31:55;;;;;;;8.98;5.85;;;16.80;99.90;;;17.18;81.99;102359.75;4842889;29;20551;-72
2021/10/14 05:34:24;;;;;;;9.05;5.88;;;16.80;99.90;;;17.12;81.88;102355.34;4844911;29;20515;-72
2021/10/14 05:36:53;;;;;;;9.93;6.25;;;16.80;99.90;;;17.17;81.73;102357.09;4844584;29;20050;-72
2021/10/14 05:39:26;;;;;;;9.55;5.93;;;16.80;99.90;;;17.16;81.69;102356.22;4844625;29;20137;-71
2021/10/14 05:41:54;;;;;;;9.55;6.50;;;16.80;99.90;;;17.18;81.53;102351.75;4844304;29;20053;-72
2021/10/14 05:44:22;;;;;;;9.68;6.78;;;16.80;99.90;;;17.17;81.50;102350.84;4843041;29;20507;-72
2021/10/14 05:46:51;;;;;;;9.52;6.57;;;16.80;99.90;;;17.14;81.37;102353.56;4844922;29;20061;-72
2021/10/14 05:49:19;;;;;;;7.53;6.53;;;16.80;99.90;;;17.19;81.37;102355.31;4842919;29;20058;-71
2021/10/14 05:51:47;;;;;;;11.07;7.18;;;16.80;99.90;;;17.04;81.25;102342.91;4844049;29;20098;-71
2021/10/14 05:54:18;;;;;;;11.10;7.43;;;16.80;99.90;;;17.15;81.39;102351.75;4844171;29;20572;-71
2021/10/14 05:56:46;;;;;;;8.35;7.15;;;16.80;99.90;;;17.03;81.57;102344.69;4843903;29;20073;-71
2021/10/14 05:59:14;;;;;;;9.65;7.63;;;16.80;99.90;;;17.02;82.00;102348.28;4844461;29;20046;-71
2021/10/14 06:01:43;;;;;;;9.63;7.50;;;16.70;99.90;;;16.94;82.17;102351.91;4844224;29;20054;-71
2021/10/14 06:04:12;;;;;;;10.90;8.13;;;16.60;99.90;;;16.93;82.08;102344.78;4842909;29;20122;-71
2021/10/14 06:06:40;;;;;;;10.45;7.95;;;16.60;99.90;;;16.92;82.32;102349.25;4843761;29;20504;-71
2021/10/14 06:09:09;;;;;;;13.73;8.73;;;16.60;99.90;;;16.94;82.24;102344.78;4843672;29;20120;-71
2021/10/14 06:11:39;;;;;;;10.82;8.35;;;16.60;99.90;;;16.99;81.93;102348.28;4843923;29;20402;-71
2021/10/14 06:14:07;;;;;;;13.13;8.63;;;16.60;99.90;;;16.88;82.21;102335.91;4843691;29;20556;-71
2021/10/14 06:16:36;;;;;;;10.80;8.40;;;16.60;99.90;;;16.80;82.42;102349.31;4843810;29;20438;-71
2021/10/14 06:19:04;;;;;;;10.18;9.05;;;16.50;99.90;;;16.83;82.40;102346.66;4843577;29;20050;-71
2021/10/14 06:21:33;;;;;;;12.98;8.30;;;16.50;99.90;;;16.79;82.58;102339.53;4844073;29;20191;-71
2021/10/14 06:24:20;;;;;;;11.18;8.80;;;16.40;99.90;;;16.69;82.37;102323.56;4843616;29;20091;-71
2021/10/14 06:26:50;;;;;;;10.40;8.23;;;16.50;99.90;;;16.68;82.24;102314.69;4843446;29;20048;-71
2021/10/14 06:29:18;;;;;;;12.03;8.47;;;16.50;99.90;;;16.79;82.19;102323.50;4843684;29;20069;-71
2021/10/14 06:31:46;;;;;;;10.45;8.73;;;16.50;99.90;;;16.93;81.82;102329.66;4843589;29;20303;-71
2021/10/14 06:34:15;;;;;;;12.23;7.53;;;16.60;99.90;;;16.96;81.48;102329.63;4843814;29;20050;-71
2021/10/14 06:36:43;;;;;;;11.23;8.25;;;16.60;99.90;;;17.03;81.19;102333.16;4842165;29;20453;-71
2021/10/14 06:39:13;;;;;;;8.90;6.97;;;16.70;99.90;;;17.04;80.66;102318.84;4843308;29;20046;-71
2021/10/14 06:41:43;;;;;;;9.02;7.55;;;16.70;99.90;;;16.93;80.42;102307.38;4842987;29;20046;-71
2021/10/14 06:44:13;;;;;;;10.75;7.72;;;16.80;99.90;;;17.16;80.23;102334.81;4843042;29;20057;-71
2021/10/14 06:46:42;;;;;;;11.88;8.18;;;16.80;99.90;;;17.22;79.82;102339.22;4843680;29;20110;-71
2021/10/14 06:49:10;;;;;;;9.57;7.97;;;16.90;99.90;;;17.22;79.70;102341.91;4842833;29;20082;-71
2021/10/14 06:51:39;;;;;;;10.57;7.55;;;16.80;99.90;;;17.23;79.51;102339.19;4843400;29;20110;-73
2021/10/14 06:54:11;;;;;;;;;;;16.80;99.90;;;17.24;79.63;102335.66;4842422;29;20408;-71
2021/10/14 06:56:41;;;;;;;12.27;8.13;;;16.90;99.90;;;17.31;79.54;102339.13;4842994;29;19946;-71
2021/10/14 06:59:09;;;;;;;11.73;7.40;;;16.90;99.90;;;17.33;79.33;102337.34;4843426;29;20161;-71
2021/10/14 07:01:39;;;;;;;10.90;8.13;;;17.00;99.90;;;17.36;79.27;102340.00;4842951;29;20060;-71
2021/10/14 07:04:07;;;;;;;13.23;8.90;;;17.00;99.90;;;17.40;79.20;102344.44;4842902;29;20073;-71
2021/10/14 07:06:36;;;;;;;12.68;9.63;;;17.00;99.90;;;17.42;79.15;102345.31;4842790;29;20042;-71
2021/10/14 07:09:04;;;;;;;12.40;9.48;;;17.10;99.90;;;17.38;79.23;102341.75;4842674;29;20048;-71
2021/10/14 07:11:42;;;;;;;12.23;10.50;;;17.00;99.90;;;17.40;79.27;102337.25;4843154;29;20077;-72
2021/10/14 07:14:12;;;;;;;13.23;10.32;;;17.00;99.90;;;17.45;79.19;102339.91;4841786;29;20149;-69
2021/10/14 07:16:42;;;;;;;14.55;10.60;;;17.10;99.90;;;17.52;78.91;102337.19;4842664;29;20053;-70
2021/10/14 07:19:11;;;;;;;16.15;9.68;;;17.20;99.90;;;17.60;78.72;102345.16;4841621;29;20153;-70
2021/10/14 07:21:39;;;;;;;10.35;9.00;;;17.20;99.90;;;17.64;78.63;102344.22;4841550;29;20145;-70
2021/10/14 07:24:07;;;;;;;10.57;8.35;;;17.20;99.90;;;17.56;78.43;102322.00;4842690;29;20110;-70
2021/10/14 07:26:36;;;;;;;14.65;11.10;;;17.30;99.90;;;17.41;78.84;102311.41;4842631;29;20120;-70
2021/10/14 07:29:05;;;;;;;14.43;11.52;;;17.20;99.90;;;17.51;79.17;102331.88;4842582;29;20094;-70
2021/10/14 07:31:33;;;;;;;12.57;11.27;;;17.20;99.90;;;17.60;79.15;102332.66;4842829;29;20068;-70
2021/10/14 07:34:03;;;;;;;13.73;11.05;;;17.20;99.90;;;17.68;78.96;102332.59;4842780;29;20473;-70
2021/10/14 07:36:32;;;;;;;16.65;10.68;;;17.20;99.90;;;17.69;79.03;102321.00;4842822;29;20661;-70
2021/10/14 07:39:02;;;;;;;14.65;11.40;;;17.30;99.90;;;17.69;79.11;102340.59;4842395;29;20075;-70
2021/10/14 07:41:30;;;;;;;12.47;11.17;;;17.30;99.90;;;17.61;79.14;102336.22;4842726;29;20140;-70
2021/10/14 07:44:00;;;;;;;15.77;12.10;;;17.30;99.90;;;17.64;79.31;102339.75;4842628;29;20322;-70
2021/10/14 07:46:29;;;;;;;17.25;12.30;;;17.20;99.90;;;17.45;79.26;102305.13;4842417;29;20050;-71
2021/10/14 07:48:57;;;;;;;16.42;11.93;;;17.30;99.90;;;17.68;79.41;102329.91;4842772;29;20132;-70
2021/10/14 07:51:27;;;;;;;16.75;11.80;;;17.20;99.90;;;17.65;79.56;102341.50;4842390;29;20412;-70
2021/10/14 07:53:55;;;;;;;14.83;11.63;;;17.20;99.90;;;17.61;79.79;102342.47;4844745;29;20057;-70
2021/10/14 07:56:24;;;;;;;15.68;11.50;;;17.20;99.90;;;17.64;79.67;102333.50;4848388;29;20777;-70
2021/10/14 07:58:52;;;;;;;15.02;11.40;;;17.20;99.90;;;17.62;79.62;102335.31;4848575;29;20042;-71
2021/10/14 08:01:21;;;;;;;13.80;11.77;;;17.20;99.90;;;17.64;79.68;102342.44;4847411;29;20042;-70
2021/10/14 08:03:50;;;;;;;14.88;11.10;;;17.20;99.90;;;17.59;79.90;102338.03;4848286;29;20073;-70
2021/10/14 08:06:19;;;;;;;15.75;12.40;;;17.20;99.90;;;17.61;80.31;102346.94;4848476;29;20054;-70
2021/10/14 08:08:48;;;;;;;15.52;11.70;;;17.20;99.90;;;17.61;80.63;102347.84;4848288;29;20050;-70
2021/10/14 08:11:17;;;;;;;19.70;13.03;;;17.20;99.90;;;17.50;80.86;102330.09;4848367;29;20038;-70
2021/10/14 08:13:45;;;;;;;20.08;13.20;;;17.20;99.90;;;17.53;81.26;102349.69;4848290;29;20374;-70
2021/10/14 08:16:14;;;;;;;20.70;14.23;;;17.10;99.90;;;17.47;81.96;102348.81;4848262;29;20128;-70
2021/10/14 08:18:42;;;;;;;21.08;15.27;;;17.10;99.90;;;17.39;82.41;102343.53;4847984;29;20046;-70
2021/10/14 08:21:11;;;;;;;23.83;15.82;;;17.00;99.90;;;17.41;82.77;102344.41;4848118;29;20069;-70
2021/10/14 08:23:39;;;;;;;22.48;15.18;;;17.00;99.90;;;17.39;82.94;102345.31;4847208;29;20442;-71
2021/10/14 08:26:10;;;;;;;24.00;15.73;;;16.90;99.90;;;17.38;82.99;102346.22;4848156;29;20073;-70
2021/10/14 08:28:39;;;;;;;23.38;15.95;;;17.00;99.90;;;17.31;83.44;102341.81;4848571;29;20050;-70
2021/10/14 08:31:07;;;;;;;24.63;17.27;;;16.90;99.90;;;17.31;83.71;102349.84;4848127;29;20046;-70
2021/10/14 08:33:36;;;;;;;26.73;16.77;;;16.90;99.90;;;16.84;83.75;102252.19;4848704;29;20102;-70
2021/10/14 08:36:06;;;;;;;24.47;17.23;;;16.90;99.90;;;17.29;84.17;102336.47;4848707;29;20060;-70
2021/10/14 08:38:35;;;;;;;29.85;16.58;;;16.90;99.90;;;17.34;84.19;102339.13;4847932;29;20367;-70
2021/10/14 08:41:04;;;;;;;28.40;16.58;;;16.90;99.90;;;17.31;84.57;102339.13;4846712;29;20122;-71
2021/10/14 08:43:36;;;;;;;27.33;17.85;;;16.90;99.90;;;17.43;84.36;102341.72;4847895;29;20484;-70
2021/10/14 08:46:04;;;;;;;20.70;16.63;;;17.00;99.90;;;17.34;84.81;102342.69;4848351;29;20045;-70
2021/10/14 08:48:34;;;;;;;21.60;16.38;;;17.00;99.90;;;17.45;84.76;102339.91;4847806;29;20050;-70
2021/10/14 08:51:02;;;;;;;26.67;17.23;;;17.10;99.90;;;17.37;84.94;102339.09;4846632;29;20385;-70
2021/10/14 08:53:31;;;;;;;24.27;17.00;;;17.00;99.90;;;17.41;85.07;102348.88;4847888;29;20046;-70
2021/10/14 08:55:59;;;;;;;22.63;16.63;;;17.00;99.90;;;17.48;85.12;102345.25;4846851;29;20054;-70
2021/10/14 08:58:28;;;;;;;26.48;17.20;;;17.00;99.90;;;17.57;84.58;102350.53;4847823;29;20124;-70
2021/10/14 09:01:22;;;;;;;11.23;8.70;;;17.10;99.90;;;17.46;82.64;102352.41;4847794;29;20049;-70
2021/10/14 09:03:54;;;;;;;10.32;6.88;;;17.10;99.90;;;17.47;81.32;102347.03;4839566;29;20072;-71
2021/10/14 09:06:22;;;;;;;10.35;7.38;;;17.10;99.90;;;17.09;78.66;102303.69;4844878;29;20454;-71
2021/10/14 09:08:53;;;;;;;12.20;6.63;;;17.00;99.90;;;17.44;78.81;102340.81;4845081;29;20054;-71
2021/10/14 09:11:27;;;;;;;10.32;6.18;;;17.00;99.90;;;17.30;79.38;102324.91;4844771;29;20109;-70
2021/10/14 09:13:58;;;;;;;11.35;6.82;;;17.00;99.90;;;17.27;79.23;102310.63;4843805;29;20072;-71
2021/10/14 09:16:31;;;;;;;9.00;6.32;;;17.10;99.90;;;17.48;79.42;102339.91;4844797;29;20057;-70
2021/10/14 09:19:16;;;;;;;11.38;7.32;;;17.10;99.90;;;17.55;79.01;102349.66;4844738;29;20060;-72
2021/10/14 09:21:48;;;;;;;10.10;7.00;;;17.20;99.90;;;17.67;78.83;102346.88;4844965;29;20066;-70
2021/10/14 09:24:32;;;;;;;11.07;7.57;;;17.20;99.90;;;17.47;78.47;102311.34;4844874;29;20057;-70
2021/10/14 09:27:06;;;;;;;9.68;7.05;;;17.30;99.90;;;17.47;78.63;102330.09;4844625;29;20099;-70
2021/10/14 09:29:37;;;;;;;9.73;6.60;;;17.20;99.90;;;17.40;78.71;102341.75;4844550;29;20062;-70
2021/10/14 09:32:14;;;;;;;11.10;7.05;;;17.10;99.90;;;17.58;78.32;102336.25;4844482;29;20424;-70
2021/10/14 09:34:50;;;;;;;10.75;6.50;;;17.20;99.90;;;17.35;78.25;102312.34;4845041;29;20046;-71
2021/10/14 09:37:31;;;;;;;;;;;17.20;99.90;;;17.53;77.37;102328.28;4844893;29;20080;-70
2021/10/14 09:40:01;;;;;;;;;;;17.30;99.90;;;17.55;77.80;102334.50;4845073;29;19924;-70
2021/10/14 09:42:42;;;;;;;8.45;6.05;;;17.30;99.90;;;17.47;76.51;102333.66;4844405;29;19924;-71
2021/10/14 09:45:23;;;;;;;7.65;5.40;;;17.20;99.90;;;17.33;76.32;102326.63;4844864;29;20498;-70
2021/10/14 09:48:11;;;;;;;10.43;5.55;;;17.10;99.90;;;17.57;76.71;102329.13;4844563;29;20046;-70
2021/10/14 09:50:42;;;;;;;9.75;6.50;;;17.20;99.90;;;17.60;75.82;102323.75;4844709;29;20068;-71
2021/10/14 09:53:13;;;;;;;7.07;5.68;;;17.30;99.90;;;17.67;75.64;102329.00;4844644;29;20534;-70
2021/10/14 09:55:43;;;;;;;6.50;5.90;;;17.40;99.90;;;17.43;75.74;102317.63;4844541;29;20120;-70
2021/10/14 09:58:12;;;;;;;11.18;6.47;;;17.20;99.90;;;17.42;75.82;102321.22;4843057;29;20056;-70
2021/10/14 10:00:42;;;;;;;9.07;5.95;;;17.20;99.90;;;17.64;75.84;102328.16;4844293;29;20455;-70
2021/10/14 10:03:17;;;;;;;11.55;5.80;;;17.30;99.90;;;17.56;75.44;102316.63;4844352;29;20050;-71
2021/10/14 10:05:48;;;;;;;7.80;6.18;;;17.30;99.90;;;17.69;75.84;102318.31;4844046;29;20058;-71
2021/10/14 10:08:28;;;;;;;12.70;6.47;;;17.40;99.90;;;17.87;75.51;102324.34;4844045;29;20500;-70
2021/10/14 10:11:03;;;;;;;7.43;6.30;;;17.50;99.90;;;17.91;74.45;102322.50;4844230;29;20053;-71
2021/10/14 10:13:33;;;;;;;7.75;6.05;;;17.60;99.90;;;17.74;74.47;102321.81;4843593;29;20566;-71
2021/10/14 10:16:17;;;;;;;9.77;6.47;;;17.50;99.90;;;17.68;75.39;102313.84;4844067;29;20133;-70